createdAt,value
2017-12-22T00:02:22.060Z,84.98
2017-12-22T00:04:49.525Z,84.65
2017-12-22T00:07:16.983Z,84.39
2017-12-22T00:09:44.440Z,84.50
2017-12-22T00:12:12.124Z,84.61
2017-12-22T00:14:39.619Z,84.91
2017-12-22T00:17:08.116Z,84.81
2017-12-22T00:19:35.575Z,84.67
2017-12-22T00:22:03.075Z,84.47
2017-12-22T00:24:30.519Z,84.40
2017-12-22T00:26:57.976Z,84.67
2017-12-22T00:29:25.988Z,84.26
2017-12-22T00:31:53.432Z,84.55
2017-12-22T00:34:20.879Z,84.28
2017-12-22T00:36:48.360Z,84.42
2017-12-22T00:39:15.957Z,84.38
2017-12-22T00:41:43.539Z,84.55
2017-12-22T00:44:11.002Z,84.55
2017-12-22T00:46:38.454Z,84.45
2017-12-22T00:49:05.967Z,84.67
2017-12-22T00:51:33.466Z,84.84
2017-12-22T00:54:00.974Z,84.55
2017-12-22T00:56:28.638Z,84.34
2017-12-22T00:58:56.152Z,84.17
2017-12-22T01:01:23.657Z,83.94
2017-12-22T01:03:51.111Z,83.91
2017-12-22T01:06:18.576Z,83.64
2017-12-22T01:08:46.115Z,83.53
2017-12-22T01:11:13.580Z,83.84
2017-12-22T01:13:41.036Z,84.04
2017-12-22T01:19:19.171Z,83.65
2017-12-22T01:21:46.615Z,83.05
2017-12-22T01:24:14.085Z,83.12
2017-12-22T01:26:41.569Z,83.16
2017-12-22T01:29:09.025Z,83.11
2017-12-22T01:31:36.483Z,82.59
2017-12-22T01:34:03.964Z,82.66
2017-12-22T01:36:31.411Z,82.34
2017-12-22T01:38:58.888Z,82.40
2017-12-22T01:41:26.353Z,82.20
2017-12-22T01:43:53.844Z,82.20
2017-12-22T01:46:21.296Z,82.27
2017-12-22T01:48:49.010Z,82.45
2017-12-22T01:51:16.515Z,83.03
2017-12-22T01:53:43.962Z,83.17
2017-12-22T01:56:11.427Z,83.50
2017-12-22T01:58:38.949Z,83.49
2017-12-22T02:01:06.418Z,82.91
2017-12-22T02:03:33.994Z,83.33
2017-12-22T02:06:01.409Z,82.70
2017-12-22T02:08:28.867Z,82.61
2017-12-22T02:10:56.330Z,82.91
2017-12-22T02:13:23.779Z,83.12
2017-12-22T02:15:51.230Z,82.97
2017-12-22T02:18:18.718Z,82.43
2017-12-22T02:20:46.182Z,82.67
2017-12-22T02:23:13.684Z,82.70
2017-12-22T02:25:41.123Z,82.32
2017-12-22T02:28:08.577Z,82.79
2017-12-22T02:30:36.044Z,82.89
2017-12-22T02:33:03.496Z,82.93
2017-12-22T02:35:30.975Z,82.69
2017-12-22T02:37:58.431Z,81.81
2017-12-22T02:40:25.925Z,82.10
2017-12-22T02:42:53.406Z,82.63
2017-12-22T02:45:20.860Z,82.71
2017-12-22T02:47:48.975Z,82.48
2017-12-22T02:50:16.487Z,82.39
2017-12-22T02:52:43.953Z,82.81
2017-12-22T02:55:11.412Z,82.65
2017-12-22T02:57:38.870Z,82.48
2017-12-22T03:00:06.332Z,82.54
2017-12-22T03:02:33.987Z,83.06
2017-12-22T03:05:01.444Z,82.72
2017-12-22T03:07:28.901Z,82.28
2017-12-22T03:09:56.383Z,82.37
2017-12-22T03:12:24.000Z,82.05
2017-12-22T03:14:51.474Z,82.17
2017-12-22T03:17:18.930Z,81.77
2017-12-22T03:19:46.430Z,81.58
2017-12-22T03:22:13.926Z,81.63
2017-12-22T03:24:41.596Z,81.82
2017-12-22T03:27:09.055Z,81.56
2017-12-22T03:29:36.491Z,82.22
2017-12-22T03:32:03.980Z,81.91
2017-12-22T03:34:31.459Z,82.10
2017-12-22T03:36:58.911Z,82.12
2017-12-22T03:39:26.376Z,81.91
2017-12-22T03:41:53.829Z,81.65
2017-12-22T03:44:21.283Z,81.30
2017-12-22T03:46:48.740Z,81.38
2017-12-22T03:49:16.221Z,81.86
2017-12-22T03:51:43.666Z,80.97
2017-12-22T03:54:11.124Z,81.29
2017-12-22T03:56:38.571Z,81.12
2017-12-22T03:59:06.024Z,81.17
2017-12-22T04:01:33.498Z,81.18
2017-12-22T04:04:00.944Z,81.71
2017-12-22T04:06:28.392Z,81.31
2017-12-22T04:08:55.842Z,80.76
2017-12-22T04:11:23.288Z,81.15
2017-12-22T04:13:50.740Z,81.20
2017-12-22T04:16:18.217Z,81.17
2017-12-22T04:18:45.703Z,81.56
2017-12-22T04:21:13.197Z,80.87
2017-12-22T04:23:40.669Z,80.68
2017-12-22T04:26:08.110Z,81.12
2017-12-22T04:28:35.645Z,81.25
2017-12-22T04:31:03.095Z,81.42
2017-12-22T04:33:30.576Z,81.45
2017-12-22T04:35:58.043Z,81.86
2017-12-22T04:38:26.386Z,81.53
2017-12-22T04:40:53.848Z,81.33
2017-12-22T04:43:21.351Z,81.26
2017-12-22T04:45:48.795Z,80.21
2017-12-22T04:48:16.256Z,79.89
2017-12-22T04:50:43.757Z,79.80
2017-12-22T04:53:11.247Z,79.84
2017-12-22T04:55:38.706Z,80.40
2017-12-22T04:58:06.156Z,79.91
2017-12-22T05:00:33.594Z,80.11
2017-12-22T05:03:01.048Z,79.84
2017-12-22T05:05:28.495Z,80.09
2017-12-22T05:07:55.969Z,80.38
2017-12-22T05:10:23.416Z,80.33
2017-12-22T05:12:50.859Z,80.01
2017-12-22T05:15:18.383Z,80.43
2017-12-22T05:17:45.850Z,80.39
2017-12-22T05:20:13.356Z,80.49
2017-12-22T05:22:40.816Z,80.29
2017-12-22T05:25:08.265Z,80.37
2017-12-22T05:27:35.908Z,80.48
2017-12-22T05:30:03.379Z,80.39
2017-12-22T05:32:31.230Z,80.62
2017-12-22T05:34:58.706Z,80.49
2017-12-22T05:37:26.147Z,80.74
2017-12-22T05:39:53.584Z,80.41
2017-12-22T05:42:21.079Z,80.81
2017-12-22T05:44:48.545Z,81.06
2017-12-22T05:47:16.132Z,80.80
2017-12-22T05:49:43.609Z,81.03
2017-12-22T05:52:11.119Z,81.13
2017-12-22T05:54:39.208Z,81.31
2017-12-22T05:57:06.683Z,81.29
2017-12-22T05:59:34.130Z,80.87
2017-12-22T06:02:01.678Z,80.88
2017-12-22T06:04:29.513Z,80.95
2017-12-22T06:06:56.979Z,81.00
2017-12-22T06:09:24.461Z,81.14
2017-12-22T06:11:51.970Z,80.82
2017-12-22T06:14:19.429Z,80.61
2017-12-22T06:16:46.888Z,80.60
2017-12-22T06:19:14.375Z,80.68
2017-12-22T06:21:41.882Z,80.85
2017-12-22T06:24:09.429Z,80.85
2017-12-22T06:26:37.219Z,80.40
2017-12-22T06:29:04.862Z,80.71
2017-12-22T06:31:32.388Z,80.62
2017-12-22T06:33:59.858Z,80.56
2017-12-22T06:36:28.020Z,80.59
2017-12-22T06:38:55.471Z,80.56
2017-12-22T06:41:24.362Z,80.37
2017-12-22T06:43:52.091Z,80.43
2017-12-22T06:46:19.612Z,80.37
2017-12-22T06:48:48.744Z,80.18
2017-12-22T06:51:16.620Z,80.43
2017-12-22T06:53:44.071Z,80.28
2017-12-22T06:56:11.774Z,80.01
2017-12-22T06:58:40.533Z,79.82
2017-12-22T07:01:08.178Z,79.94
2017-12-22T07:03:35.682Z,79.67
2017-12-22T07:06:03.179Z,79.60
2017-12-22T07:08:33.127Z,79.69
2017-12-22T07:11:00.591Z,79.41
2017-12-22T07:13:28.133Z,79.25
2017-12-22T07:15:55.615Z,79.62
2017-12-22T07:18:23.227Z,79.46
2017-12-22T07:20:50.817Z,79.30
2017-12-22T07:23:18.676Z,79.14
2017-12-22T07:25:46.729Z,79.37
2017-12-22T07:28:14.275Z,79.17
2017-12-22T07:30:41.783Z,79.19
2017-12-22T07:33:09.317Z,79.56
2017-12-22T07:35:36.800Z,79.34
2017-12-22T07:38:04.308Z,78.81
2017-12-22T07:40:31.844Z,78.64
2017-12-22T07:42:59.404Z,79.15
2017-12-22T07:45:26.952Z,79.36
2017-12-22T07:47:56.589Z,79.39
2017-12-22T07:50:24.108Z,79.44
2017-12-22T07:52:51.590Z,79.33
2017-12-22T07:55:19.210Z,79.53
2017-12-22T07:57:46.810Z,79.60
2017-12-22T08:00:14.444Z,79.29
2017-12-22T08:02:41.924Z,78.98
2017-12-22T08:05:09.612Z,79.19
2017-12-22T08:07:38.229Z,78.65
2017-12-22T08:10:06.894Z,78.45
2017-12-22T08:12:34.517Z,78.88
2017-12-22T08:15:02.004Z,78.79
2017-12-22T08:17:35.354Z,78.74
2017-12-22T08:20:15.955Z,78.52
2017-12-22T08:35:40.612Z,77.66
2017-12-22T08:38:08.433Z,77.51
2017-12-22T08:40:36.754Z,77.71
2017-12-22T08:43:04.249Z,77.85
2017-12-22T08:45:31.997Z,76.97
2017-12-22T08:48:00.058Z,76.45
2017-12-22T08:50:27.717Z,76.81
2017-12-22T08:52:55.360Z,76.02
2017-12-22T08:55:22.868Z,76.18
2017-12-22T08:57:50.383Z,75.85
2017-12-22T09:00:17.853Z,75.69
2017-12-22T09:02:45.378Z,76.12
2017-12-22T09:05:13.050Z,76.13
2017-12-22T09:07:40.610Z,75.52
2017-12-22T09:10:08.240Z,76.00
2017-12-22T09:12:36.294Z,75.58
2017-12-22T09:15:03.818Z,75.31
2017-12-22T09:17:31.301Z,75.00
2017-12-22T09:19:58.836Z,74.70
2017-12-22T09:22:27.094Z,74.54
2017-12-22T09:24:54.759Z,74.27
2017-12-22T09:27:22.297Z,74.19
2017-12-22T09:29:49.776Z,73.47
2017-12-22T09:32:18.381Z,73.45
2017-12-22T09:34:46.782Z,72.62
2017-12-22T09:37:14.243Z,72.28
2017-12-22T09:39:41.727Z,72.42
2017-12-22T09:42:09.191Z,72.49
2017-12-22T09:44:36.959Z,72.92
2017-12-22T09:47:04.687Z,72.42
2017-12-22T09:49:32.203Z,72.50
2017-12-22T09:52:00.828Z,71.91
2017-12-22T09:54:28.876Z,72.43
2017-12-22T09:56:56.392Z,71.84
2017-12-22T09:59:24.632Z,71.82
2017-12-22T10:01:52.122Z,71.25
2017-12-22T10:04:23.073Z,71.11
2017-12-22T10:06:50.552Z,71.23
2017-12-22T10:09:18.147Z,70.74
2017-12-22T10:11:45.617Z,70.72
2017-12-22T10:14:13.266Z,70.84
2017-12-22T10:16:43.441Z,70.21
2017-12-22T10:19:15.686Z,70.01
2017-12-22T10:21:43.515Z,69.61
2017-12-22T10:24:13.191Z,69.96
2017-12-22T10:26:40.708Z,70.39
2017-12-22T10:29:08.167Z,70.44
2017-12-22T10:31:40.313Z,70.37
2017-12-22T10:34:07.779Z,70.14
2017-12-22T10:36:35.247Z,69.91
2017-12-22T10:39:02.796Z,69.86
2017-12-22T10:41:30.457Z,69.84
2017-12-22T10:43:57.920Z,69.84
2017-12-22T10:46:25.376Z,68.85
2017-12-22T10:48:52.896Z,69.57
2017-12-22T10:51:20.456Z,69.52
2017-12-22T10:53:47.917Z,69.32
2017-12-22T10:56:15.412Z,69.32
2017-12-22T10:58:42.927Z,69.13
2017-12-22T11:01:10.754Z,68.91
2017-12-22T11:03:38.274Z,68.91
2017-12-22T11:06:05.796Z,68.17
2017-12-22T11:08:33.807Z,68.09
2017-12-22T11:11:01.381Z,68.03
2017-12-22T11:13:29.114Z,67.93
2017-12-22T11:15:56.621Z,68.32
2017-12-22T11:18:24.613Z,67.58
2017-12-22T11:20:52.135Z,67.93
2017-12-22T11:23:19.943Z,67.74
2017-12-22T11:25:47.460Z,67.41
2017-12-22T11:28:15.723Z,67.65
2017-12-22T11:30:44.522Z,68.15
2017-12-22T11:33:12.095Z,67.43
2017-12-22T11:35:40.325Z,67.43
2017-12-22T11:38:07.827Z,68.40
2017-12-22T11:40:35.326Z,68.25
2017-12-22T11:43:02.900Z,68.68
2017-12-22T11:45:30.464Z,68.71
2017-12-22T11:47:57.940Z,68.77
2017-12-22T11:50:25.419Z,68.71
2017-12-22T11:52:52.965Z,69.31
2017-12-22T11:55:20.440Z,69.00
2017-12-22T11:57:48.048Z,68.18
2017-12-22T12:00:15.550Z,68.84
2017-12-22T12:02:43.027Z,69.29
2017-12-22T12:05:10.549Z,69.02
2017-12-22T12:07:38.016Z,69.37
2017-12-22T12:10:05.561Z,68.97
2017-12-22T12:12:33.134Z,68.70
2017-12-22T12:15:00.598Z,68.91
2017-12-22T12:17:28.072Z,68.64
2017-12-22T12:19:55.575Z,69.14
2017-12-22T12:22:23.067Z,69.22
2017-12-22T12:24:50.538Z,68.78
2017-12-22T12:27:18.025Z,68.81
2017-12-22T12:29:45.982Z,69.05
2017-12-22T12:32:13.478Z,69.41
2017-12-22T12:34:41.087Z,69.34
2017-12-22T12:37:08.559Z,70.20
2017-12-22T12:39:36.039Z,70.40
2017-12-22T12:42:03.510Z,71.09
2017-12-22T12:44:31.339Z,71.08
2017-12-22T12:46:58.934Z,70.97
2017-12-22T12:49:26.587Z,70.66
2017-12-22T12:51:55.303Z,71.37
2017-12-22T12:54:22.983Z,71.09
2017-12-22T12:56:50.569Z,70.95
2017-12-22T12:59:18.032Z,70.55
2017-12-22T13:01:45.582Z,70.49
2017-12-22T13:04:13.226Z,70.49
2017-12-22T13:06:40.997Z,70.92
2017-12-22T13:09:08.566Z,70.70
2017-12-22T13:11:36.043Z,71.05
2017-12-22T13:14:03.501Z,70.90
2017-12-22T13:16:31.262Z,71.17
2017-12-22T13:18:58.717Z,71.37
2017-12-22T13:21:26.180Z,70.96
2017-12-22T13:23:53.710Z,70.95
2017-12-22T13:26:21.192Z,70.87
2017-12-22T13:28:48.672Z,70.73
2017-12-22T13:31:16.174Z,70.61
2017-12-22T13:33:43.656Z,69.75
2017-12-22T13:36:11.132Z,70.66
2017-12-22T13:38:38.616Z,70.83
2017-12-22T13:41:06.130Z,71.06
2017-12-22T13:43:33.798Z,71.39
2017-12-22T13:46:01.287Z,71.63
2017-12-22T13:48:28.839Z,71.42
2017-12-22T13:50:56.403Z,71.64
2017-12-22T13:53:23.966Z,71.89
2017-12-22T13:55:51.429Z,71.94
2017-12-22T13:58:18.936Z,71.87
2017-12-22T14:00:47.031Z,71.82
2017-12-22T14:03:15.401Z,72.14
2017-12-22T14:05:43.799Z,72.28
2017-12-22T14:08:11.344Z,72.88
2017-12-22T14:10:40.097Z,73.36
2017-12-22T14:13:08.092Z,73.59
2017-12-22T14:15:35.780Z,73.81
2017-12-22T14:18:04.596Z,74.29
2017-12-22T14:20:32.154Z,74.44
2017-12-22T14:22:59.668Z,73.83
2017-12-22T14:25:27.210Z,74.24
2017-12-22T14:27:54.703Z,74.06
2017-12-22T14:30:22.208Z,74.73
2017-12-22T14:32:49.694Z,75.39
2017-12-22T14:35:17.217Z,75.37
2017-12-22T14:37:45.675Z,75.68
2017-12-22T14:40:14.209Z,76.24
2017-12-22T14:42:42.797Z,76.31
2017-12-22T14:45:10.374Z,76.29
2017-12-22T14:47:38.752Z,76.27
2017-12-22T14:50:06.238Z,76.68
2017-12-22T14:52:34.174Z,77.04
2017-12-22T14:55:01.770Z,77.21
2017-12-22T14:57:29.239Z,77.66
2017-12-22T14:59:56.825Z,77.63
2017-12-22T15:02:24.358Z,77.85
2017-12-22T15:04:51.945Z,78.31
2017-12-22T15:07:19.489Z,78.18
2017-12-22T15:09:47.108Z,78.57
2017-12-22T15:12:14.816Z,78.89
2017-12-22T15:14:42.351Z,78.82
2017-12-22T15:17:09.934Z,78.82
2017-12-22T15:19:37.486Z,79.03
2017-12-22T15:22:04.959Z,78.53
2017-12-22T15:24:32.647Z,78.91
2017-12-22T15:27:00.193Z,79.02
2017-12-22T15:29:27.655Z,79.23
2017-12-22T15:31:55.188Z,79.21
2017-12-22T15:34:22.702Z,79.66
2017-12-22T15:36:50.443Z,79.10
2017-12-22T15:39:17.926Z,79.40
2017-12-22T15:41:46.835Z,79.66
2017-12-22T15:44:16.692Z,79.48
2017-12-22T15:58:42.687Z,78.66
2017-12-22T16:01:11.076Z,78.68
2017-12-22T16:03:40.572Z,78.77
2017-12-22T16:09:08.461Z,78.51
2017-12-22T16:11:36.692Z,78.27
2017-12-22T16:14:04.255Z,78.15
2017-12-22T16:16:31.744Z,78.63
2017-12-22T16:18:59.232Z,78.53
2017-12-22T16:21:26.753Z,78.47
2017-12-22T16:23:54.249Z,78.71
2017-12-22T16:26:21.803Z,79.11
2017-12-22T16:28:49.343Z,79.49
2017-12-22T16:31:16.894Z,79.63
2017-12-22T16:33:46.505Z,80.09
2017-12-22T16:36:14.034Z,80.16
2017-12-22T16:38:41.635Z,79.99
2017-12-22T16:41:09.368Z,79.78
2017-12-22T16:43:37.224Z,80.32
2017-12-22T16:46:04.750Z,80.40
2017-12-22T16:48:32.260Z,80.18
2017-12-22T17:02:51.965Z,79.84
2017-12-22T17:08:07.951Z,79.38
2017-12-22T17:10:35.472Z,78.81
2017-12-22T17:13:02.957Z,78.62
2017-12-22T17:15:32.492Z,78.60
2017-12-22T17:17:59.970Z,77.95
2017-12-22T17:20:27.485Z,78.17
2017-12-22T17:22:54.983Z,78.05
2017-12-22T17:25:22.500Z,77.92
2017-12-22T17:27:49.988Z,77.55
2017-12-22T17:30:17.475Z,77.60
2017-12-22T17:32:44.960Z,77.99
2017-12-22T17:35:13.380Z,77.87
2017-12-22T17:37:40.872Z,77.68
2017-12-22T17:40:08.383Z,77.29
2017-12-22T17:42:35.919Z,77.42
2017-12-22T17:45:03.411Z,77.31
2017-12-22T17:47:30.949Z,77.32
2017-12-22T17:49:58.477Z,77.09
2017-12-22T17:52:26.233Z,76.91
2017-12-22T17:54:53.737Z,75.56
2017-12-22T17:57:21.278Z,75.55
2017-12-22T17:59:48.813Z,75.43
2017-12-22T18:02:16.424Z,75.61
2017-12-22T18:04:43.943Z,75.25
2017-12-22T18:07:11.497Z,75.78
2017-12-22T18:09:39.078Z,76.22
2017-12-22T18:12:06.616Z,76.10
2017-12-22T18:14:34.104Z,76.02
2017-12-22T18:17:01.658Z,75.84
2017-12-22T18:19:29.180Z,75.92
2017-12-22T18:21:56.681Z,75.72
2017-12-22T18:24:27.200Z,75.28
2017-12-22T18:26:54.713Z,74.87
2017-12-22T18:29:22.232Z,74.57
2017-12-22T18:31:49.853Z,74.31
2017-12-22T18:34:17.720Z,74.01
2017-12-22T18:36:46.272Z,73.56
2017-12-22T18:39:14.287Z,73.28
2017-12-22T18:41:42.167Z,73.35
2017-12-22T18:44:09.756Z,73.10
2017-12-22T18:49:34.254Z,72.79
2017-12-22T18:52:01.817Z,72.04
2017-12-22T18:54:29.492Z,72.01
2017-12-22T18:56:57.181Z,71.73
2017-12-22T18:59:24.765Z,71.70
2017-12-22T19:01:53.491Z,71.56
2017-12-22T19:04:24.957Z,71.40
2017-12-22T19:06:52.800Z,70.79
2017-12-22T19:09:21.859Z,70.42
2017-12-22T19:11:49.470Z,70.99
2017-12-22T19:14:17.966Z,70.55
2017-12-22T19:16:47.056Z,70.62
2017-12-22T19:19:14.985Z,70.66
2017-12-22T19:21:42.923Z,71.00
2017-12-22T19:24:10.445Z,70.91
2017-12-22T19:26:39.845Z,71.41
2017-12-22T19:29:07.337Z,71.18
2017-12-22T19:31:34.841Z,71.12
2017-12-22T19:34:02.354Z,71.05
2017-12-22T19:36:30.844Z,70.81
2017-12-22T19:38:58.984Z,70.32
2017-12-22T19:41:26.500Z,70.72
2017-12-22T19:43:55.101Z,70.72
2017-12-22T19:46:23.926Z,70.51
2017-12-22T19:48:51.416Z,70.49
2017-12-22T19:51:19.054Z,70.29
2017-12-22T19:53:47.389Z,70.30
2017-12-22T19:56:15.492Z,70.82
2017-12-22T19:58:44.166Z,70.78
2017-12-22T20:01:11.763Z,70.48
2017-12-22T20:03:39.414Z,70.70
2017-12-22T20:06:07.043Z,70.62
2017-12-22T20:08:34.975Z,70.12
2017-12-22T20:11:02.511Z,69.98
2017-12-22T20:13:30.219Z,69.88
2017-12-22T20:15:57.932Z,70.12
2017-12-22T20:18:26.441Z,69.84
2017-12-22T20:20:56.639Z,69.55
2017-12-22T20:23:24.272Z,69.79
2017-12-22T20:25:51.897Z,70.08
2017-12-22T20:28:20.350Z,70.00
2017-12-22T20:30:47.888Z,70.20
2017-12-22T20:33:15.843Z,70.32
2017-12-22T20:41:36.552Z,70.70
2017-12-22T20:44:04.790Z,70.87
2017-12-22T20:52:21.706Z,70.37
2017-12-22T20:54:49.229Z,70.55
2017-12-22T20:57:16.836Z,70.39
2017-12-22T20:59:44.396Z,70.24
2017-12-22T21:02:12.032Z,70.24
2017-12-22T21:04:39.556Z,70.31
2017-12-22T21:07:07.129Z,70.44
2017-12-22T21:09:34.640Z,70.25
2017-12-22T21:12:02.116Z,70.31
2017-12-22T21:14:30.830Z,70.21
2017-12-22T21:16:58.308Z,69.89
2017-12-22T21:19:25.805Z,69.98
2017-12-22T21:21:53.363Z,69.34
2017-12-22T21:30:26.342Z,69.61
2017-12-22T21:33:10.360Z,69.25
2017-12-22T21:35:37.888Z,68.94
2017-12-22T21:44:10.524Z,68.70
2017-12-22T21:46:45.496Z,68.57
2017-12-22T21:49:14.903Z,68.14
2017-12-22T21:51:42.824Z,68.40
2017-12-22T21:54:10.651Z,68.12
2017-12-22T21:56:43.881Z,68.09
2017-12-22T21:59:12.547Z,67.86
2017-12-22T22:01:40.576Z,67.88
2017-12-22T22:04:09.481Z,68.02
2017-12-22T22:06:37.032Z,67.82
2017-12-22T22:09:04.555Z,67.76
2017-12-22T22:11:32.322Z,68.13
2017-12-22T22:14:00.165Z,68.21
2017-12-22T22:16:28.360Z,67.90
2017-12-22T22:18:55.928Z,67.73
2017-12-22T22:21:32.062Z,67.68
2017-12-22T22:23:59.572Z,67.93
2017-12-22T22:26:27.041Z,68.19
2017-12-22T22:28:54.823Z,68.02
2017-12-22T22:31:22.364Z,68.48
2017-12-22T22:33:49.850Z,68.32
2017-12-22T22:36:17.334Z,68.24
2017-12-22T22:38:44.809Z,67.92
2017-12-22T22:41:12.336Z,68.25
2017-12-22T22:43:39.834Z,68.33
2017-12-22T22:46:07.294Z,68.16
2017-12-22T22:48:34.880Z,68.49
2017-12-22T22:51:02.369Z,68.52
2017-12-22T22:53:29.918Z,68.88
2017-12-22T22:55:57.773Z,68.70
2017-12-22T22:58:25.300Z,69.17
2017-12-22T23:00:52.825Z,69.04
2017-12-22T23:03:20.361Z,68.88
2017-12-22T23:05:47.847Z,68.66
2017-12-22T23:08:15.582Z,67.73
2017-12-22T23:10:43.463Z,67.40
2017-12-22T23:13:10.971Z,67.93
2017-12-22T23:15:39.858Z,67.82
2017-12-22T23:18:07.337Z,66.95
2017-12-22T23:20:35.968Z,67.51
2017-12-22T23:23:03.481Z,67.89
2017-12-22T23:25:31.009Z,68.04
2017-12-22T23:27:58.568Z,68.57
2017-12-22T23:30:26.491Z,68.54
2017-12-22T23:32:54.002Z,68.61
2017-12-22T23:35:21.830Z,68.91
2017-12-22T23:37:49.411Z,68.53
2017-12-22T23:40:17.008Z,68.50
2017-12-22T23:42:44.518Z,68.23
2017-12-22T23:45:12.174Z,68.51
2017-12-22T23:47:39.667Z,68.77
2017-12-22T23:50:07.172Z,68.49
2017-12-22T23:52:34.672Z,68.79
2017-12-22T23:55:02.285Z,68.99
2017-12-22T23:57:29.814Z,68.19
2017-12-22T23:59:57.440Z,68.16
